sensor_id;sensor_type;location;lat;lon;timestamp;pressure;altitude;pressure_sealevel;temperature;humidity
70127;BME280;57491;42.694;23.314;2022-10-16T00:01:07;95722.66;;;11.23;66.67
70127;BME280;57491;42.694;23.314;2022-10-16T00:03:34;95742.66;;;11.38;66.86
70127;BME280;57491;42.694;23.314;2022-10-16T00:06:02;95757.28;;;11.39;67.47
70127;BME280;57491;42.694;23.314;2022-10-16T00:08:30;95755.47;;;11.40;66.78
70127;BME280;57491;42.694;23.314;2022-10-16T00:11:02;95758.41;;;11.45;67.63
70127;BME280;57491;42.694;23.314;2022-10-16T00:13:31;95760.03;;;11.46;66.78
70127;BME280;57491;42.694;23.314;2022-10-16T00:15:59;95760.03;;;11.46;66.11
70127;BME280;57491;42.694;23.314;2022-10-16T00:18:28;95770.13;;;11.41;66.00
70127;BME280;57491;42.694;23.314;2022-10-16T00:21:00;95754.84;;;11.38;66.64
70127;BME280;57491;42.694;23.314;2022-10-16T00:23:27;95761.69;;;11.39;67.69
70127;BME280;57491;42.694;23.314;2022-10-16T00:25:57;95761.69;;;11.39;66.11
70127;BME280;57491;42.694;23.314;2022-10-16T00:28:24;95767.06;;;11.37;66.00
70127;BME280;57491;42.694;23.314;2022-10-16T00:30:52;95773.72;;;11.32;66.52
70127;BME280;57491;42.694;23.314;2022-10-16T00:33:20;95779.91;;;11.39;65.58
70127;BME280;57491;42.694;23.314;2022-10-16T00:35:47;95779.75;;;11.32;66.12
70127;BME280;57491;42.694;23.314;2022-10-16T00:38:14;95778.13;;;11.31;65.76
70127;BME280;57491;42.694;23.314;2022-10-16T00:40:41;95786.91;;;11.30;65.79
70127;BME280;57491;42.694;23.314;2022-10-16T00:43:14;95782.84;;;11.36;67.52
70127;BME280;57491;42.694;23.314;2022-10-16T00:45:41;95774.41;;;11.26;67.01
70127;BME280;57491;42.694;23.314;2022-10-16T00:48:12;95772.78;;;11.25;65.58
70127;BME280;57491;42.694;23.314;2022-10-16T00:50:40;95767.59;;;11.16;65.84
70127;BME280;57491;42.694;23.314;2022-10-16T00:53:10;95766.47;;;11.11;66.35
70127;BME280;57491;42.694;23.314;2022-10-16T00:55:38;95766.28;;;11.12;66.14
70127;BME280;57491;42.694;23.314;2022-10-16T00:58:06;95749.72;;;11.05;66.07
70127;BME280;57491;42.694;23.314;2022-10-16T01:00:34;95765.66;;;11.10;65.99
70127;BME280;57491;42.694;23.314;2022-10-16T01:03:02;95774.28;;;11.03;65.71
70127;BME280;57491;42.694;23.314;2022-10-16T01:05:33;95781.91;;;11.04;66.50
70127;BME280;57491;42.694;23.314;2022-10-16T01:08:08;95777.69;;;11.03;66.45
70127;BME280;57491;42.694;23.314;2022-10-16T01:10:41;95772.00;;;10.92;66.54
70127;BME280;57491;42.694;23.314;2022-10-16T01:13:18;95781.09;;;10.96;66.85
70127;BME280;57491;42.694;23.314;2022-10-16T01:15:53;95779.97;;;10.98;66.69
70127;BME280;57491;42.694;23.314;2022-10-16T01:18:27;95784.84;;;10.93;67.36
70127;BME280;57491;42.694;23.314;2022-10-16T01:21:01;95773.94;;;10.90;67.35
70127;BME280;57491;42.694;23.314;2022-10-16T01:23:38;95774.44;;;10.93;66.79
70127;BME280;57491;42.694;23.314;2022-10-16T01:26:29;95769.25;;;10.93;66.48
70127;BME280;57491;42.694;23.314;2022-10-16T01:29:03;95765.84;;;10.93;66.71
70127;BME280;57491;42.694;23.314;2022-10-16T01:31:37;95750.72;;;10.80;66.79
70127;BME280;57491;42.694;23.314;2022-10-16T01:34:09;95761.75;;;10.90;67.02
70127;BME280;57491;42.694;23.314;2022-10-16T01:36:42;95767.47;;;10.94;67.28
70127;BME280;57491;42.694;23.314;2022-10-16T01:39:12;95770.22;;;10.92;67.03
70127;BME280;57491;42.694;23.314;2022-10-16T01:41:44;95771.66;;;10.95;66.73
70127;BME280;57491;42.694;23.314;2022-10-16T01:44:17;95767.78;;;10.91;66.79
70127;BME280;57491;42.694;23.314;2022-10-16T01:46:48;95772.81;;;10.92;67.16
70127;BME280;57491;42.694;23.314;2022-10-16T01:49:17;95746.31;;;10.72;67.71
70127;BME280;57491;42.694;23.314;2022-10-16T01:51:47;95757.38;;;10.74;66.92
70127;BME280;57491;42.694;23.314;2022-10-16T01:54:18;95775.09;;;10.87;67.81
70127;BME280;57491;42.694;23.314;2022-10-16T01:56:47;95775.44;;;10.92;67.37
70127;BME280;57491;42.694;23.314;2022-10-16T01:59:19;95783.38;;;10.91;67.17
70127;BME280;57491;42.694;23.314;2022-10-16T02:01:50;95793.97;;;10.89;66.89
70127;BME280;57491;42.694;23.314;2022-10-16T02:04:23;95784.06;;;10.85;67.14
70127;BME280;57491;42.694;23.314;2022-10-16T02:06:52;95782.41;;;10.84;68.08
70127;BME280;57491;42.694;23.314;2022-10-16T02:09:19;95794.63;;;10.83;67.41
70127;BME280;57491;42.694;23.314;2022-10-16T02:11:46;95796.72;;;10.80;67.60
70127;BME280;57491;42.694;23.314;2022-10-16T02:14:15;95795.25;;;10.77;67.61
70127;BME280;57491;42.694;23.314;2022-10-16T02:16:45;95793.47;;;10.69;68.17
70127;BME280;57491;42.694;23.314;2022-10-16T02:19:14;95805.03;;;10.75;68.55
70127;BME280;57491;42.694;23.314;2022-10-16T02:21:45;95809.56;;;10.73;67.80
70127;BME280;57491;42.694;23.314;2022-10-16T02:24:20;95806.13;;;10.72;67.13
70127;BME280;57491;42.694;23.314;2022-10-16T02:26:52;95793.47;;;10.61;67.52
70127;BME280;57491;42.694;23.314;2022-10-16T02:29:24;95813.78;;;10.66;67.19
70127;BME280;57491;42.694;23.314;2022-10-16T02:31:56;95819.97;;;10.57;66.96
70127;BME280;57491;42.694;23.314;2022-10-16T02:34:25;95808.88;;;10.55;66.92
70127;BME280;57491;42.694;23.314;2022-10-16T02:36:55;95802.25;;;10.52;67.79
70127;BME280;57491;42.694;23.314;2022-10-16T02:39:24;95806.28;;;10.55;67.56
70127;BME280;57491;42.694;23.314;2022-10-16T02:41:51;95809.38;;;10.58;68.32
70127;BME280;57491;42.694;23.314;2022-10-16T02:44:18;95815.88;;;10.54;67.47
70127;BME280;57491;42.694;23.314;2022-10-16T02:46:45;95818.66;;;10.53;68.14
70127;BME280;57491;42.694;23.314;2022-10-16T02:49:14;95797.31;;;10.41;68.85
70127;BME280;57491;42.694;23.314;2022-10-16T02:51:41;95824.66;;;10.53;68.14
70127;BME280;57491;42.694;23.314;2022-10-16T02:54:08;95817.03;;;10.52;67.48
70127;BME280;57491;42.694;23.314;2022-10-16T02:56:35;95825.78;;;10.51;67.49
70127;BME280;57491;42.694;23.314;2022-10-16T02:59:02;95826.41;;;10.45;66.25
70127;BME280;57491;42.694;23.314;2022-10-16T03:01:29;95832.09;;;10.40;67.34
70127;BME280;57491;42.694;23.314;2022-10-16T03:03:56;95814.34;;;10.19;66.45
70127;BME280;57491;42.694;23.314;2022-10-16T03:06:24;95834.63;;;10.16;66.71
70127;BME280;57491;42.694;23.314;2022-10-16T03:08:51;95833.78;;;10.07;67.45
70127;BME280;57491;42.694;23.314;2022-10-16T03:11:18;95828.56;;;9.99;67.55
70127;BME280;57491;42.694;23.314;2022-10-16T03:13:45;95836.34;;;9.99;68.05
70127;BME280;57491;42.694;23.314;2022-10-16T03:16:12;95842.16;;;9.93;67.79
70127;BME280;57491;42.694;23.314;2022-10-16T03:18:39;95832.38;;;9.87;68.28
70127;BME280;57491;42.694;23.314;2022-10-16T03:21:07;95828.13;;;9.78;68.25
70127;BME280;57491;42.694;23.314;2022-10-16T03:23:35;95838.22;;;9.81;68.56
70127;BME280;57491;42.694;23.314;2022-10-16T03:26:02;95849.41;;;9.81;68.19
70127;BME280;57491;42.694;23.314;2022-10-16T03:28:29;95838.84;;;9.83;68.83
70127;BME280;57491;42.694;23.314;2022-10-16T03:30:56;95839.03;;;9.81;67.95
70127;BME280;57491;42.694;23.314;2022-10-16T03:33:23;95851.81;;;9.75;68.84
70127;BME280;57491;42.694;23.314;2022-10-16T03:35:54;95840.81;;;9.81;69.00
70127;BME280;57491;42.694;23.314;2022-10-16T03:38:22;95853.78;;;9.81;68.81
70127;BME280;57491;42.694;23.314;2022-10-16T03:40:50;95850.03;;;9.75;69.20
70127;BME280;57491;42.694;23.314;2022-10-16T03:43:17;95844.00;;;9.75;68.53
70127;BME280;57491;42.694;23.314;2022-10-16T03:45:44;95845.66;;;9.76;69.08
70127;BME280;57491;42.694;23.314;2022-10-16T03:48:11;95844.84;;;9.75;68.49
70127;BME280;57491;42.694;23.314;2022-10-16T03:50:38;95845.94;;;9.73;69.45
70127;BME280;57491;42.694;23.314;2022-10-16T03:53:05;95824.50;;;9.63;69.85
70127;BME280;57491;42.694;23.314;2022-10-16T03:55:32;95832.66;;;9.76;68.85
70127;BME280;57491;42.694;23.314;2022-10-16T03:58:01;95837.53;;;9.79;69.01
70127;BME280;57491;42.694;23.314;2022-10-16T04:00:28;95822.88;;;9.70;68.53
70127;BME280;57491;42.694;23.314;2022-10-16T04:02:55;95826.66;;;9.75;68.44
70127;BME280;57491;42.694;23.314;2022-10-16T04:05:22;95841.91;;;9.78;69.17
70127;BME280;57491;42.694;23.314;2022-10-16T04:07:49;95848.59;;;9.81;69.30
70127;BME280;57491;42.694;23.314;2022-10-16T04:10:16;95849.88;;;9.77;68.58
70127;BME280;57491;42.694;23.314;2022-10-16T04:12:43;95843.31;;;9.65;68.48
70127;BME280;57491;42.694;23.314;2022-10-16T04:15:11;95849.13;;;9.59;68.38
70127;BME280;57491;42.694;23.314;2022-10-16T04:17:39;95844.59;;;9.61;68.75
70127;BME280;57491;42.694;23.314;2022-10-16T04:20:06;95824.09;;;9.50;68.84
70127;BME280;57491;42.694;23.314;2022-10-16T04:22:34;95843.63;;;9.62;68.17
70127;BME280;57491;42.694;23.314;2022-10-16T04:25:01;95845.19;;;9.55;68.44
70127;BME280;57491;42.694;23.314;2022-10-16T04:27:28;95850.84;;;9.50;69.25
70127;BME280;57491;42.694;23.314;2022-10-16T04:29:56;95837.00;;;9.41;69.09
70127;BME280;57491;42.694;23.314;2022-10-16T04:32:26;95858.50;;;9.52;69.07
70127;BME280;57491;42.694;23.314;2022-10-16T04:34:53;95846.78;;;9.48;68.56
70127;BME280;57491;42.694;23.314;2022-10-16T04:37:23;95857.38;;;9.54;69.00
70127;BME280;57491;42.694;23.314;2022-10-16T04:39:51;95858.50;;;9.52;68.51
70127;BME280;57491;42.694;23.314;2022-10-16T04:42:18;95868.69;;;9.45;69.61
70127;BME280;57491;42.694;23.314;2022-10-16T04:44:45;95859.44;;;9.51;69.98
70127;BME280;57491;42.694;23.314;2022-10-16T04:47:12;95821.66;;;9.22;69.67
70127;BME280;57491;42.694;23.314;2022-10-16T04:49:40;95865.31;;;9.53;70.71
70127;BME280;57491;42.694;23.314;2022-10-16T04:52:08;95873.09;;;9.53;69.86
70127;BME280;57491;42.694;23.314;2022-10-16T04:54:35;95874.28;;;9.58;70.70
70127;BME280;57491;42.694;23.314;2022-10-16T04:57:02;95875.59;;;9.62;69.88
70127;BME280;57491;42.694;23.314;2022-10-16T04:59:30;95856.25;;;9.57;70.30
70127;BME280;57491;42.694;23.314;2022-10-16T05:01:57;95884.28;;;9.79;69.12
70127;BME280;57491;42.694;23.314;2022-10-16T05:04:24;95884.19;;;9.89;70.84
70127;BME280;57491;42.694;23.314;2022-10-16T05:06:53;95884.81;;;9.91;70.27
70127;BME280;57491;42.694;23.314;2022-10-16T05:09:20;95887.00;;;10.03;69.58
70127;BME280;57491;42.694;23.314;2022-10-16T05:11:47;95889.16;;;10.08;68.42
70127;BME280;57491;42.694;23.314;2022-10-16T05:14:14;95888.97;;;10.09;67.81
70127;BME280;57491;42.694;23.314;2022-10-16T05:16:41;95895.22;;;10.16;68.08
70127;BME280;57491;42.694;23.314;2022-10-16T05:19:08;95893.13;;;10.20;68.54
70127;BME280;57491;42.694;23.314;2022-10-16T05:21:35;95885.19;;;10.21;68.05
70127;BME280;57491;42.694;23.314;2022-10-16T05:24:04;95889.44;;;10.39;67.05
70127;BME280;57491;42.694;23.314;2022-10-16T05:26:31;95878.59;;;10.43;66.42
70127;BME280;57491;42.694;23.314;2022-10-16T05:28:58;95900.72;;;10.63;65.59
70127;BME280;57491;42.694;23.314;2022-10-16T05:31:25;95908.25;;;10.74;66.56
70127;BME280;57491;42.694;23.314;2022-10-16T05:33:52;95892.31;;;10.86;65.96
70127;BME280;57491;42.694;23.314;2022-10-16T05:36:24;95883.72;;;10.93;64.51
70127;BME280;57491;42.694;23.314;2022-10-16T05:38:51;95903.25;;;11.22;63.65
70127;BME280;57491;42.694;23.314;2022-10-16T05:41:19;95904.72;;;11.40;62.91
70127;BME280;57491;42.694;23.314;2022-10-16T05:43:47;95879.97;;;11.44;62.92
70127;BME280;57491;42.694;23.314;2022-10-16T05:46:15;95905.53;;;11.73;62.45
70127;BME280;57491;42.694;23.314;2022-10-16T05:48:42;95915.13;;;11.73;61.29
70127;BME280;57491;42.694;23.314;2022-10-16T05:51:11;95918.84;;;11.86;61.65
70127;BME280;57491;42.694;23.314;2022-10-16T05:53:39;95910.31;;;12.08;61.09
70127;BME280;57491;42.694;23.314;2022-10-16T05:56:09;95919.97;;;12.39;61.06
70127;BME280;57491;42.694;23.314;2022-10-16T05:58:38;95882.19;;;12.35;58.94
70127;BME280;57491;42.694;23.314;2022-10-16T06:01:10;95934.81;;;12.77;58.60
70127;BME280;57491;42.694;23.314;2022-10-16T06:03:38;95929.19;;;12.96;57.90
70127;BME280;57491;42.694;23.314;2022-10-16T06:06:09;95914.91;;;13.07;57.00
70127;BME280;57491;42.694;23.314;2022-10-16T06:08:36;95940.53;;;13.34;56.63
70127;BME280;57491;42.694;23.314;2022-10-16T06:11:05;95939.94;;;13.47;55.38
70127;BME280;57491;42.694;23.314;2022-10-16T06:13:32;95949.38;;;13.71;55.14
70127;BME280;57491;42.694;23.314;2022-10-16T06:16:02;95943.28;;;13.93;54.85
70127;BME280;57491;42.694;23.314;2022-10-16T06:18:30;95949.34;;;14.08;54.32
70127;BME280;57491;42.694;23.314;2022-10-16T06:21:07;95934.72;;;14.14;53.34
70127;BME280;57491;42.694;23.314;2022-10-16T06:23:34;95947.09;;;14.35;52.95
70127;BME280;57491;42.694;23.314;2022-10-16T06:26:05;95945.50;;;14.63;52.19
70127;BME280;57491;42.694;23.314;2022-10-16T06:28:32;95920.59;;;14.38;52.28
70127;BME280;57491;42.694;23.314;2022-10-16T06:31:02;95951.88;;;14.75;51.75
70127;BME280;57491;42.694;23.314;2022-10-16T06:33:29;95956.47;;;14.88;51.06
70127;BME280;57491;42.694;23.314;2022-10-16T06:36:01;95942.66;;;14.94;50.94
70127;BME280;57491;42.694;23.314;2022-10-16T06:38:29;95961.31;;;15.27;50.21
70127;BME280;57491;42.694;23.314;2022-10-16T06:40:56;95961.81;;;15.51;49.93
70127;BME280;57491;42.694;23.314;2022-10-16T06:43:24;95956.56;;;15.51;49.36
70127;BME280;57491;42.694;23.314;2022-10-16T06:45:51;95959.16;;;15.73;48.81
70127;BME280;57491;42.694;23.314;2022-10-16T06:48:20;95958.63;;;16.05;48.40
70127;BME280;57491;42.694;23.314;2022-10-16T06:50:58;95955.56;;;16.29;47.38
70127;BME280;57491;42.694;23.314;2022-10-16T06:53:27;95974.00;;;16.42;46.92
70127;BME280;57491;42.694;23.314;2022-10-16T06:55:55;95976.34;;;16.59;46.47
70127;BME280;57491;42.694;23.314;2022-10-16T06:58:22;95966.66;;;16.59;46.93
70127;BME280;57491;42.694;23.314;2022-10-16T07:00:55;95984.97;;;16.87;45.69
70127;BME280;57491;42.694;23.314;2022-10-16T07:03:24;95989.47;;;16.93;45.11
70127;BME280;57491;42.694;23.314;2022-10-16T07:05:51;95968.25;;;17.01;45.20
70127;BME280;57491;42.694;23.314;2022-10-16T07:08:18;95991.22;;;17.33;44.32
70127;BME280;57491;42.694;23.314;2022-10-16T07:10:45;95989.00;;;17.57;43.88
70127;BME280;57491;42.694;23.314;2022-10-16T07:13:12;95993.88;;;17.47;43.50
70127;BME280;57491;42.694;23.314;2022-10-16T07:15:40;95993.66;;;17.48;43.49
70127;BME280;57491;42.694;23.314;2022-10-16T07:18:07;95996.16;;;17.69;43.08
70127;BME280;57491;42.694;23.314;2022-10-16T07:20:36;95993.53;;;18.02;43.04
70127;BME280;57491;42.694;23.314;2022-10-16T07:23:04;95990.91;;;18.02;42.52
70127;BME280;57491;42.694;23.314;2022-10-16T07:25:31;95989.09;;;18.36;41.69
70127;BME280;57491;42.694;23.314;2022-10-16T07:27:58;95995.94;;;18.63;41.12
70127;BME280;57491;42.694;23.314;2022-10-16T07:30:25;95991.69;;;18.55;40.97
70127;BME280;57491;42.694;23.314;2022-10-16T07:32:52;95987.00;;;18.51;40.99
70127;BME280;57491;42.694;23.314;2022-10-16T07:35:19;95992.47;;;18.76;40.51
70127;BME280;57491;42.694;23.314;2022-10-16T07:37:48;95988.75;;;18.96;40.77
70127;BME280;57491;42.694;23.314;2022-10-16T07:40:15;95994.50;;;19.25;39.92
70127;BME280;57491;42.694;23.314;2022-10-16T07:42:42;95989.28;;;19.18;39.37
70127;BME280;57491;42.694;23.314;2022-10-16T07:45:09;95990.00;;;19.45;39.34
70127;BME280;57491;42.694;23.314;2022-10-16T07:47:36;95989.72;;;19.84;38.66
70127;BME280;57491;42.694;23.314;2022-10-16T07:50:04;95989.16;;;20.32;37.36
70127;BME280;57491;42.694;23.314;2022-10-16T07:52:31;95997.28;;;20.55;37.30
70127;BME280;57491;42.694;23.314;2022-10-16T07:55:00;95996.50;;;20.73;36.81
70127;BME280;57491;42.694;23.314;2022-10-16T07:57:27;95999.06;;;20.98;36.00
70127;BME280;57491;42.694;23.314;2022-10-16T07:59:54;96002.00;;;21.26;35.47
70127;BME280;57491;42.694;23.314;2022-10-16T08:02:21;96003.41;;;21.10;35.30
70127;BME280;57491;42.694;23.314;2022-10-16T08:04:48;96005.09;;;21.05;35.82
70127;BME280;57491;42.694;23.314;2022-10-16T08:07:15;95995.47;;;20.92;36.19
70127;BME280;57491;42.694;23.314;2022-10-16T08:09:42;95985.78;;;20.86;35.93
70127;BME280;57491;42.694;23.314;2022-10-16T08:12:11;96001.06;;;21.39;35.39
70127;BME280;57491;42.694;23.314;2022-10-16T08:14:38;95995.91;;;21.85;34.11
70127;BME280;57491;42.694;23.314;2022-10-16T08:17:05;95996.44;;;22.17;33.92
70127;BME280;57491;42.694;23.314;2022-10-16T08:19:32;95997.16;;;22.59;33.13
70127;BME280;57491;42.694;23.314;2022-10-16T08:22:00;95989.84;;;23.12;32.41
70127;BME280;57491;42.694;23.314;2022-10-16T08:24:27;95997.34;;;23.16;31.82
70127;BME280;57491;42.694;23.314;2022-10-16T08:26:56;95986.88;;;23.37;31.92
70127;BME280;57491;42.694;23.314;2022-10-16T08:29:24;95990.59;;;23.65;31.57
70127;BME280;57491;42.694;23.314;2022-10-16T08:31:51;95987.22;;;23.52;30.79
70127;BME280;57491;42.694;23.314;2022-10-16T08:34:19;95994.22;;;23.19;31.37
70127;BME280;57491;42.694;23.314;2022-10-16T08:36:46;95983.09;;;23.33;31.45
70127;BME280;57491;42.694;23.314;2022-10-16T08:39:13;95983.34;;;23.60;30.59
70127;BME280;57491;42.694;23.314;2022-10-16T08:42:11;95993.53;;;23.80;30.44
70127;BME280;57491;42.694;23.314;2022-10-16T08:47:42;95988.34;;;24.52;29.84
70127;BME280;57491;42.694;23.314;2022-10-16T08:50:13;95986.31;;;24.59;28.97
70127;BME280;57491;42.694;23.314;2022-10-16T08:52:43;95990.97;;;24.85;28.55
70127;BME280;57491;42.694;23.314;2022-10-16T08:55:24;95996.09;;;25.30;28.28
70127;BME280;57491;42.694;23.314;2022-10-16T08:57:54;95996.31;;;25.28;27.38
70127;BME280;57491;42.694;23.314;2022-10-16T09:00:23;95984.94;;;25.55;26.83
70127;BME280;57491;42.694;23.314;2022-10-16T09:02:53;96000.38;;;25.80;25.93
70127;BME280;57491;42.694;23.314;2022-10-16T09:05:33;95995.78;;;25.53;25.97
70127;BME280;57491;42.694;23.314;2022-10-16T09:08:10;96000.25;;;25.21;25.90
70127;BME280;57491;42.694;23.314;2022-10-16T09:10:48;95991.56;;;25.30;26.16
70127;BME280;57491;42.694;23.314;2022-10-16T09:13:26;95997.19;;;25.56;25.20
70127;BME280;57491;42.694;23.314;2022-10-16T09:16:01;95997.50;;;25.86;25.33
70127;BME280;57491;42.694;23.314;2022-10-16T09:18:39;95990.16;;;26.25;25.07
70127;BME280;57491;42.694;23.314;2022-10-16T09:21:10;95985.97;;;26.76;24.57
70127;BME280;57491;42.694;23.314;2022-10-16T09:23:41;95979.19;;;27.00;23.59
70127;BME280;57491;42.694;23.314;2022-10-16T09:26:11;95978.38;;;27.72;22.49
70127;BME280;57491;42.694;23.314;2022-10-16T09:28:39;95988.03;;;27.93;22.15
70127;BME280;57491;42.694;23.314;2022-10-16T09:31:09;95991.59;;;27.32;22.86
70127;BME280;57491;42.694;23.314;2022-10-16T09:33:40;95958.13;;;26.62;23.44
70127;BME280;57491;42.694;23.314;2022-10-16T09:36:09;95991.16;;;26.98;23.33
70127;BME280;57491;42.694;23.314;2022-10-16T09:38:37;95982.03;;;27.46;22.55
70127;BME280;57491;42.694;23.314;2022-10-16T09:41:10;95996.66;;;28.31;21.66
70127;BME280;57491;42.694;23.314;2022-10-16T09:43:41;95974.94;;;27.97;21.76
70127;BME280;57491;42.694;23.314;2022-10-16T09:46:24;95973.59;;;27.69;22.30
70127;BME280;57491;42.694;23.314;2022-10-16T09:48:54;95982.19;;;28.42;21.43
70127;BME280;57491;42.694;23.314;2022-10-16T09:51:27;95952.25;;;28.30;21.33
70127;BME280;57491;42.694;23.314;2022-10-16T09:53:56;95967.13;;;28.97;21.34
70127;BME280;57491;42.694;23.314;2022-10-16T09:56:26;95966.00;;;29.18;20.53
70127;BME280;57491;42.694;23.314;2022-10-16T09:58:54;95966.75;;;29.18;20.50
70127;BME280;57491;42.694;23.314;2022-10-16T10:01:28;95964.75;;;28.90;20.82
70127;BME280;57491;42.694;23.314;2022-10-16T10:03:57;95962.50;;;29.17;20.47
70127;BME280;57491;42.694;23.314;2022-10-16T10:06:29;95950.88;;;29.42;20.19
70127;BME280;57491;42.694;23.314;2022-10-16T10:09:00;95958.81;;;30.06;19.92
70127;BME280;57491;42.694;23.314;2022-10-16T10:11:48;95952.63;;;30.69;19.77
70127;BME280;57491;42.694;23.314;2022-10-16T10:14:19;95951.03;;;31.20;18.66
70127;BME280;57491;42.694;23.314;2022-10-16T10:16:49;95949.53;;;31.52;18.30
70127;BME280;57491;42.694;23.314;2022-10-16T10:19:18;95951.66;;;31.73;18.28
70127;BME280;57491;42.694;23.314;2022-10-16T10:21:46;95954.38;;;32.24;18.15
70127;BME280;57491;42.694;23.314;2022-10-16T10:24:14;95947.34;;;33.02;17.38
70127;BME280;57491;42.694;23.314;2022-10-16T10:26:49;95952.44;;;33.03;17.13
70127;BME280;57491;42.694;23.314;2022-10-16T10:29:27;95957.53;;;32.91;17.12
70127;BME280;57491;42.694;23.314;2022-10-16T10:32:06;95949.34;;;32.96;16.81
70127;BME280;57491;42.694;23.314;2022-10-16T10:34:45;95947.97;;;32.85;16.96
70127;BME280;57491;42.694;23.314;2022-10-16T10:37:27;95940.09;;;33.16;16.66
70127;BME280;57491;42.694;23.314;2022-10-16T10:40:05;95939.66;;;32.68;17.28
70127;BME280;57491;42.694;23.314;2022-10-16T10:42:41;95928.69;;;33.05;16.82
70127;BME280;57491;42.694;23.314;2022-10-16T10:45:17;95931.78;;;33.40;16.42
70127;BME280;57491;42.694;23.314;2022-10-16T10:47:56;95928.38;;;33.48;16.40
70127;BME280;57491;42.694;23.314;2022-10-16T10:50:31;95921.53;;;34.44;15.68
70127;BME280;57491;42.694;23.314;2022-10-16T10:53:10;95925.59;;;35.43;14.88
70127;BME280;57491;42.694;23.314;2022-10-16T10:55:47;95922.13;;;35.68;14.63
70127;BME280;57491;42.694;23.314;2022-10-16T10:58:34;95913.81;;;36.08;14.42
70127;BME280;57491;42.694;23.314;2022-10-16T11:01:08;95905.25;;;36.23;14.05
70127;BME280;57491;42.694;23.314;2022-10-16T11:03:51;95910.38;;;36.16;14.43
70127;BME280;57491;42.694;23.314;2022-10-16T11:06:25;95908.81;;;36.70;13.90
70127;BME280;57491;42.694;23.314;2022-10-16T11:08:57;95907.75;;;36.92;13.25
70127;BME280;57491;42.694;23.314;2022-10-16T11:11:32;95913.56;;;37.11;12.93
70127;BME280;57491;42.694;23.314;2022-10-16T11:14:06;95909.72;;;37.41;12.84
70127;BME280;57491;42.694;23.314;2022-10-16T11:16:40;95901.91;;;36.81;13.30
70127;BME280;57491;42.694;23.314;2022-10-16T11:19:21;95915.78;;;37.38;13.04
70127;BME280;57491;42.694;23.314;2022-10-16T11:21:56;95908.34;;;37.35;13.15
70127;BME280;57491;42.694;23.314;2022-10-16T11:24:36;95904.03;;;38.17;12.48
70127;BME280;57491;42.694;23.314;2022-10-16T11:27:11;95896.81;;;37.68;12.43
70127;BME280;57491;42.694;23.314;2022-10-16T11:29:46;95899.75;;;38.16;11.73
70127;BME280;57491;42.694;23.314;2022-10-16T11:32:21;95893.00;;;38.34;11.84
70127;BME280;57491;42.694;23.314;2022-10-16T11:34:55;95903.50;;;38.57;11.28
70127;BME280;57491;42.694;23.314;2022-10-16T11:37:26;95894.91;;;38.67;11.78
70127;BME280;57491;42.694;23.314;2022-10-16T11:40:05;95818.16;;;37.38;12.06
70127;BME280;57491;42.694;23.314;2022-10-16T11:42:41;95897.38;;;38.60;11.94
70127;BME280;57491;42.694;23.314;2022-10-16T11:45:20;95896.00;;;38.21;11.98
70127;BME280;57491;42.694;23.314;2022-10-16T11:47:57;95900.34;;;38.01;12.08
70127;BME280;57491;42.694;23.314;2022-10-16T11:50:32;95899.19;;;38.56;12.05
70127;BME280;57491;42.694;23.314;2022-10-16T11:53:05;95880.09;;;39.13;11.30
70127;BME280;57491;42.694;23.314;2022-10-16T11:55:40;95891.72;;;39.62;10.52
70127;BME280;57491;42.694;23.314;2022-10-16T11:58:15;95896.28;;;39.46;10.38
70127;BME280;57491;42.694;23.314;2022-10-16T12:00:45;95899.81;;;39.22;10.43
70127;BME280;57491;42.694;23.314;2022-10-16T12:03:18;95890.97;;;39.49;10.64
70127;BME280;57491;42.694;23.314;2022-10-16T12:06:00;95888.75;;;40.35;10.48
70127;BME280;57491;42.694;23.314;2022-10-16T12:08:34;95894.81;;;40.44;10.20
70127;BME280;57491;42.694;23.314;2022-10-16T12:11:09;95894.53;;;38.68;10.89
70127;BME280;57491;42.694;23.314;2022-10-16T12:13:38;95889.00;;;39.62;10.48
70127;BME280;57491;42.694;23.314;2022-10-16T12:16:19;95894.88;;;39.64;10.73
70127;BME280;57491;42.694;23.314;2022-10-16T12:18:47;95892.22;;;40.63;10.06
70127;BME280;57491;42.694;23.314;2022-10-16T12:21:17;95887.81;;;40.74;10.00
70127;BME280;57491;42.694;23.314;2022-10-16T12:23:48;95887.38;;;40.88;10.58
70127;BME280;57491;42.694;23.314;2022-10-16T12:26:24;95886.16;;;41.71;9.54
70127;BME280;57491;42.694;23.314;2022-10-16T12:28:52;95886.94;;;42.48;9.23
70127;BME280;57491;42.694;23.314;2022-10-16T12:31:20;95885.22;;;42.40;9.31
70127;BME280;57491;42.694;23.314;2022-10-16T12:33:58;95898.22;;;42.47;8.69
70127;BME280;57491;42.694;23.314;2022-10-16T12:36:32;95886.72;;;41.96;8.90
70127;BME280;57491;42.694;23.314;2022-10-16T12:39:00;95890.03;;;42.92;8.24
70127;BME280;57491;42.694;23.314;2022-10-16T12:41:29;95891.34;;;43.25;8.35
70127;BME280;57491;42.694;23.314;2022-10-16T12:43:57;95882.50;;;42.40;8.89
70127;BME280;57491;42.694;23.314;2022-10-16T12:46:37;95881.94;;;43.22;8.40
70127;BME280;57491;42.694;23.314;2022-10-16T12:49:15;95891.81;;;42.58;9.15
70127;BME280;57491;42.694;23.314;2022-10-16T12:51:48;95885.09;;;43.24;8.51
70127;BME280;57491;42.694;23.314;2022-10-16T12:54:17;95894.31;;;42.67;8.69
70127;BME280;57491;42.694;23.314;2022-10-16T12:56:54;95865.66;;;42.38;8.77
70127;BME280;57491;42.694;23.314;2022-10-16T12:59:33;95886.06;;;41.48;9.28
70127;BME280;57491;42.694;23.314;2022-10-16T13:02:20;95901.22;;;41.30;9.43
70127;BME280;57491;42.694;23.314;2022-10-16T13:05:06;95898.22;;;41.35;9.27
70127;BME280;57491;42.694;23.314;2022-10-16T13:07:49;95899.34;;;41.65;8.95
70127;BME280;57491;42.694;23.314;2022-10-16T13:10:24;95879.44;;;42.03;8.74
70127;BME280;57491;42.694;23.314;2022-10-16T13:13:05;95879.59;;;41.21;9.17